Decoded Metar for LYKV (KRALJEVO/LADEVCI in SERBIA) (IATA:N/A) | Meteo·Mobile Aviation Weather
aviador You're here:

LYKV Decoded Metar

KRALJEVO/LADEVCI in SERBIA
Report Time2019-09-17 00:00:00
UTC Time2019-09-17 00:12:31
Flight Rules vfr VFR
WindVRB at 01 kt
Visibility9999 m
Phenomena:N/A
Clouds:N/A
CeilingNone
Temp10°C (ISA -4)
Dew Point10°C (100% RH)
AAT9.7°C
QNH1017 hPa
Density Alt295 ft
Elevation694 ft
Report Wrong Elevation
Raw Report
METAR LYKV 170000Z VRB01KT CAVOK 10/10 Q1017 NOSIG=

Extra information for LYKV:More info

Metar Taf Metar & Taf Last 4 Metars F.Rules Stats Wind Profile Meteogram Temp Stats Airport Information Weather charts Add Link Nearby VenuesMetar ALERT Operation Metar Decoded Social comments